Time;durP1;ratioP1;P1;durP2;ratioP2;P2;SDS_P1;SDS_P2;PMS_P1;PMS_P2;Temp;Humidity;BMP_temperature;BMP_pressure;BME280_temperature;BME280_humidity;BME280_pressure;Samples;Min_cycle;Max_cycle;Signal;HPM_P1;HPM_P2
2022/05/09 00:00:16;;;;;;;5.23;4.70;;;7.20;91.40;;;;;;5055334;28;20449;-65
2022/05/09 00:02:42;;;;;;;4.53;4.23;;;7.20;91.40;;;;;;5055661;28;20199;-61
2022/05/09 00:05:10;;;;;;;4.60;3.70;;;7.20;91.70;;;;;;5054780;28;20964;-60
2022/05/09 00:07:35;;;;;;;4.43;4.00;;;7.20;94.30;;;;;;5055804;28;20783;-64
2022/05/09 00:10:01;;;;;;;4.50;4.20;;;7.10;95.00;;;;;;5054984;28;20413;-64
2022/05/09 00:12:27;;;;;;;6.73;4.60;;;7.10;94.90;;;;;;5055394;28;20191;-61
2022/05/09 00:14:53;;;;;;;4.77;4.37;;;7.00;96.80;;;;;;5055732;28;20186;-65
2022/05/09 00:17:19;;;;;;;8.60;4.23;;;6.90;98.50;;;;;;5054438;28;20414;-61
2022/05/09 00:19:44;;;;;;;6.03;4.20;;;6.90;98.10;;;;;;5055000;28;20643;-60
2022/05/09 00:22:10;;;;;;;6.13;4.47;;;7.00;99.90;;;;;;5054397;28;20433;-64
2022/05/09 00:24:36;;;;;;;4.30;4.00;;;6.90;99.90;;;;;;5055430;28;20528;-64
2022/05/09 00:27:02;;;;;;;6.73;4.43;;;7.00;99.90;;;;;;5054955;28;20293;-60
2022/05/09 00:29:28;;;;;;;5.80;4.10;;;7.00;99.90;;;;;;5053690;28;20179;-60
2022/05/09 00:31:57;;;;;;;5.63;4.60;;;6.90;99.90;;;;;;5055340;28;20408;-65
2022/05/09 00:34:25;;;;;;;4.80;4.20;;;6.90;99.90;;;;;;5055277;28;20175;-60
2022/05/09 00:36:55;;;;;;;7.43;5.30;;;6.90;99.90;;;;;;5055112;28;20424;-65
2022/05/09 00:39:22;;;;;;;5.37;3.70;;;6.90;99.90;;;;;;5054782;28;20416;-65
2022/05/09 00:41:48;;;;;;;6.83;4.10;;;6.70;99.90;;;;;;5055139;28;20417;-65
2022/05/09 00:44:21;;;;;;;4.67;3.77;;;6.70;99.90;;;;;;5054814;28;20421;-64
2022/05/09 00:46:49;;;;;;;4.97;4.13;;;6.70;99.90;;;;;;5055068;28;20476;-63
2022/05/09 00:49:22;;;;;;;4.50;3.97;;;6.70;99.90;;;;;;5054401;28;20941;-61
2022/05/09 00:52:06;;;;;;;4.57;3.67;;;6.60;99.90;;;;;;5055072;28;20484;-60
2022/05/09 00:54:42;;;;;;;4.90;3.93;;;6.70;99.90;;;;;;5055118;28;20428;-60
2022/05/09 00:57:32;;;;;;;5.33;4.83;;;6.70;99.90;;;;;;5053648;28;20507;-60
2022/05/09 01:00:03;;;;;;;4.40;3.57;;;6.60;99.90;;;;;;5054262;28;20410;-65
2022/05/09 01:02:29;;;;;;;4.00;3.60;;;6.60;99.90;;;;;;5054303;28;20424;-61
2022/05/09 01:04:57;;;;;;;3.97;3.67;;;6.50;99.90;;;;;;5054757;28;20409;-64
2022/05/09 01:07:24;;;;;;;4.83;4.43;;;6.50;99.90;;;;;;5054666;28;20695;-65
2022/05/09 01:09:50;;;;;;;4.77;4.37;;;6.50;99.90;;;;;;5054062;28;20493;-65
2022/05/09 01:12:39;;;;;;;4.43;4.00;;;6.50;99.90;;;;;;5054576;28;20421;-64
2022/05/09 01:15:12;;;;;;;6.63;4.07;;;6.50;99.90;;;;;;5054158;28;20425;-65
2022/05/09 01:17:39;;;;;;;3.73;3.40;;;6.50;99.90;;;;;;5054272;28;20413;-63
2022/05/09 01:20:08;;;;;;;5.50;4.10;;;6.50;99.90;;;;;;5053691;28;20412;-61
2022/05/09 01:22:35;;;;;;;4.47;4.03;;;6.30;99.90;;;;;;5054336;28;20520;-64
2022/05/09 01:25:06;;;;;;;6.10;4.27;;;6.30;99.90;;;;;;5054294;28;20481;-65
2022/05/09 01:27:33;;;;;;;4.83;4.40;;;6.40;99.90;;;;;;5054283;28;20467;-64
2022/05/09 01:30:25;;;;;;;4.37;3.40;;;6.30;99.90;;;;;;5053628;28;20877;-60
2022/05/09 01:32:55;;;;;;;7.23;4.43;;;6.40;99.90;;;;;;5052839;28;20425;-61
2022/05/09 01:35:54;;;;;;;4.33;3.93;;;6.40;99.90;;;;;;5053816;28;20559;-64
2022/05/09 01:38:25;;;;;;;5.03;4.20;;;6.40;99.90;;;;;;5053956;28;20469;-64
2022/05/09 01:40:51;;;;;;;4.77;3.53;;;6.40;99.90;;;;;;5053554;28;20401;-64
2022/05/09 01:43:38;;;;;;;3.80;3.60;;;6.40;99.90;;;;;;5053617;28;20433;-62
2022/05/09 01:46:06;;;;;;;5.50;4.10;;;6.40;99.90;;;;;;5053967;28;20199;-64
2022/05/09 01:51:17;;;;;;;3.77;3.47;;;6.30;99.90;;;;;;5054227;28;20393;-65
2022/05/09 01:53:50;;;;;;;5.50;5.00;;;6.30;99.90;;;;;;5053216;28;20425;-64
2022/05/09 01:56:17;;;;;;;5.43;4.67;;;6.30;99.90;;;;;;5054014;28;20177;-61
2022/05/09 01:58:43;;;;;;;6.27;4.07;;;6.20;99.90;;;;;;5053046;28;20413;-65
2022/05/09 02:01:09;;;;;;;4.30;3.90;;;6.20;99.90;;;;;;5053839;28;21016;-62
2022/05/09 02:03:35;;;;;;;7.17;4.60;;;6.10;99.90;;;;;;5053437;28;20206;-61
2022/05/09 02:06:01;;;;;;;5.77;4.43;;;6.10;99.90;;;;;;5053738;28;20237;-60
2022/05/09 02:08:27;;;;;;;4.00;3.70;;;6.00;99.90;;;;;;5053519;28;20425;-65
2022/05/09 02:10:53;;;;;;;6.07;4.23;;;6.10;99.90;;;;;;5052943;28;20901;-61
2022/05/09 02:13:18;;;;;;;4.77;3.80;;;6.10;99.90;;;;;;5053497;28;20194;-61
2022/05/09 02:15:44;;;;;;;4.33;3.90;;;6.10;99.90;;;;;;5053472;28;20528;-61
2022/05/09 02:18:10;;;;;;;5.50;4.27;;;6.10;99.90;;;;;;5053580;28;20167;-61
2022/05/09 02:20:36;;;;;;;4.53;4.13;;;6.10;99.90;;;;;;5052839;28;20766;-60
2022/05/09 02:23:01;;;;;;;8.37;4.20;;;6.10;99.90;;;;;;5053343;28;20273;-60
2022/05/09 02:25:29;;;;;;;4.90;3.53;;;6.10;99.90;;;;;;5052058;28;20175;-64
2022/05/09 02:27:59;;;;;;;4.00;3.57;;;6.10;99.90;;;;;;5053275;28;20224;-61
2022/05/09 02:30:25;;;;;;;4.07;3.43;;;6.10;99.90;;;;;;5052312;28;20465;-60
2022/05/09 02:32:52;;;;;;;5.27;3.40;;;6.10;99.90;;;;;;5053292;28;20934;-64
2022/05/09 02:35:19;;;;;;;4.53;3.93;;;6.10;99.90;;;;;;5053192;28;20421;-61
2022/05/09 02:37:45;;;;;;;3.83;3.53;;;6.00;99.90;;;;;;5053144;28;20475;-60
2022/05/09 02:40:11;;;;;;;4.40;4.10;;;6.00;99.90;;;;;;5052650;28;20417;-64
2022/05/09 02:42:37;;;;;;;8.40;4.20;;;6.00;99.90;;;;;;5053101;28;20429;-61
2022/05/09 02:45:03;;;;;;;4.07;3.70;;;6.00;99.90;;;;;;5053242;28;20775;-60
2022/05/09 02:47:29;;;;;;;4.00;3.70;;;6.00;99.90;;;;;;5057133;28;20493;-63
2022/05/09 02:49:54;;;;;;;3.83;3.53;;;5.90;99.90;;;;;;5056235;28;20799;-62
2022/05/09 02:52:20;;;;;;;3.90;3.53;;;5.90;99.90;;;;;;5057376;28;20436;-60
2022/05/09 02:54:46;;;;;;;4.00;3.13;;;5.90;99.90;;;;;;5057161;28;20178;-63
2022/05/09 02:57:12;;;;;;;3.30;3.10;;;5.90;99.90;;;;;;5057359;28;20252;-60
2022/05/09 02:59:37;;;;;;;6.03;4.27;;;5.90;99.90;;;;;;5056748;28;20620;-60
2022/05/09 03:02:03;;;;;;;3.67;3.37;;;5.90;99.90;;;;;;5057035;28;20526;-60
2022/05/09 03:04:38;;;;;;;4.00;3.60;;;5.90;99.90;;;;;;5057113;28;20261;-63
2022/05/09 03:07:05;;;;;;;5.70;3.83;;;5.90;99.90;;;;;;5056547;28;20460;-60
2022/05/09 03:09:32;;;;;;;4.10;3.70;;;5.90;99.90;;;;;;5056468;28;20408;-64
2022/05/09 03:11:57;;;;;;;3.63;3.33;;;5.90;99.90;;;;;;5056793;28;20925;-61
2022/05/09 03:14:23;;;;;;;4.43;4.03;;;5.90;99.90;;;;;;5056929;28;20424;-59
2022/05/09 03:16:49;;;;;;;3.47;3.20;;;5.90;99.90;;;;;;5056924;28;20412;-58
2022/05/09 03:19:14;;;;;;;4.27;3.40;;;5.90;99.90;;;;;;5056162;28;20181;-58
2022/05/09 03:21:40;;;;;;;6.37;3.13;;;5.90;99.90;;;;;;5056697;28;20167;-59
2022/05/09 03:24:07;;;;;;;10.07;4.37;;;5.90;99.90;;;;;;5056405;28;20170;-62
2022/05/09 03:26:33;;;;;;;3.83;3.50;;;5.90;99.90;;;;;;5056568;28;20195;-61
2022/05/09 03:28:59;;;;;;;4.03;3.67;;;5.90;99.90;;;;;;5056120;28;20944;-63
2022/05/09 03:31:25;;;;;;;5.73;3.60;;;5.90;99.90;;;;;;5056575;28;20270;-58
2022/05/09 03:33:50;;;;;;;3.93;3.60;;;5.90;99.90;;;;;;5056416;28;20969;-62
2022/05/09 03:36:16;;;;;;;3.43;3.20;;;5.90;99.90;;;;;;5055090;28;20225;-61
2022/05/09 03:38:42;;;;;;;5.00;3.13;;;5.90;99.90;;;;;;5055927;28;20271;-59
2022/05/09 03:41:07;;;;;;;5.27;3.53;;;5.90;99.90;;;;;;5056445;28;20266;-59
2022/05/09 03:43:33;;;;;;;3.90;3.60;;;5.90;99.90;;;;;;5056010;28;20203;-62
2022/05/09 03:46:00;;;;;;;4.40;3.37;;;6.00;99.90;;;;;;5054919;28;20560;-63
2022/05/09 03:48:26;;;;;;;3.17;2.93;;;6.00;99.90;;;;;;5055975;28;20206;-59
2022/05/09 03:50:53;;;;;;;4.93;3.33;;;6.00;99.90;;;;;;5055993;28;20825;-61
2022/05/09 03:53:19;;;;;;;3.20;3.00;;;6.00;99.90;;;;;;5056096;28;20445;-63
2022/05/09 03:55:44;;;;;;;3.23;2.93;;;6.10;99.90;;;;;;5056171;28;20471;-65
2022/05/09 03:58:10;;;;;;;3.60;3.00;;;6.10;99.90;;;;;;5056223;28;20620;-64
2022/05/09 04:00:36;;;;;;;3.90;3.13;;;6.20;99.90;;;;;;5055425;28;20170;-62
2022/05/09 04:03:03;;;;;;;4.63;3.60;;;6.20;99.90;;;;;;5055401;28;20207;-64
2022/05/09 04:05:32;;;;;;;3.53;3.20;;;6.30;99.90;;;;;;5055954;28;20397;-65
2022/05/09 04:08:00;;;;;;;9.03;5.90;;;6.40;99.90;;;;;;5055927;28;20455;-65
2022/05/09 04:10:32;;;;;;;8.90;6.70;;;6.40;99.90;;;;;;5055173;28;20473;-64
2022/05/09 04:12:59;;;;;;;9.30;6.43;;;6.50;99.90;;;;;;5054520;28;20425;-66
2022/05/09 04:18:09;;;;;;;11.47;5.20;;;6.60;99.90;;;;;;5056040;28;20747;-61
2022/05/09 04:20:37;;;;;;;4.13;3.37;;;6.70;99.90;;;;;;5054894;28;20409;-65
2022/05/09 04:23:03;;;;;;;4.27;3.40;;;6.80;99.90;;;;;;5055281;28;20421;-61
2022/05/09 04:25:31;;;;;;;3.57;3.27;;;6.90;99.90;;;;;;5054221;28;20770;-66
2022/05/09 04:27:58;;;;;;;3.80;3.43;;;7.00;99.90;;;;;;5055480;28;20404;-62
2022/05/09 04:30:24;;;;;;;5.10;3.77;;;7.10;99.90;;;;;;5054793;28;20390;-63
2022/05/09 04:32:50;;;;;;;4.70;4.13;;;7.20;99.90;;;;;;5055202;28;20411;-66
2022/05/09 04:35:20;;;;;;;7.30;4.00;;;7.30;99.90;;;;;;5055478;28;20168;-66
2022/05/09 04:37:47;;;;;;;6.90;4.43;;;7.40;99.90;;;;;;5054879;28;20260;-62
2022/05/09 04:40:15;;;;;;;5.30;4.50;;;7.60;99.90;;;;;;5054676;28;20414;-61
2022/05/09 04:42:40;;;;;;;8.97;4.60;;;7.80;99.90;;;;;;5054967;28;20502;-64
2022/05/09 04:45:06;;;;;;;11.33;5.10;;;8.00;99.90;;;;;;5055153;28;20486;-66
2022/05/09 04:47:32;;;;;;;8.10;4.63;;;8.20;99.90;;;;;;5055224;28;20230;-65
2022/05/09 04:49:58;;;;;;;4.53;4.13;;;8.30;99.90;;;;;;5054394;28;20439;-66
2022/05/09 04:52:23;;;;;;;10.33;4.20;;;8.40;99.90;;;;;;5055047;28;20652;-66
2022/05/09 04:54:49;;;;;;;6.83;4.00;;;8.50;99.90;;;;;;5054577;28;20174;-67
2022/05/09 04:57:15;;;;;;;6.43;3.67;;;8.60;99.90;;;;;;5055040;28;20170;-68
2022/05/09 04:59:40;;;;;;;7.47;3.70;;;8.70;99.90;;;;;;5054494;28;20395;-68
2022/05/09 05:02:06;;;;;;;7.63;3.83;;;8.90;99.90;;;;;;5054745;28;20194;-61
2022/05/09 05:04:32;;;;;;;10.63;3.50;;;9.00;99.90;;;;;;5054810;28;20228;-60
2022/05/09 05:06:57;;;;;;;4.47;3.60;;;9.00;99.90;;;;;;5054656;28;20204;-61
2022/05/09 05:09:23;;;;;;;5.10;4.20;;;9.10;99.90;;;;;;5052586;28;20559;-65
2022/05/09 05:11:49;;;;;;;5.23;3.70;;;9.20;99.90;;;;;;5054217;28;20171;-63
2022/05/09 05:14:15;;;;;;;6.73;3.73;;;9.20;99.90;;;;;;5054562;28;20162;-61
2022/05/09 05:19:33;;;;;;;4.10;3.70;;;9.30;99.90;;;;;;5053847;28;20405;-66
2022/05/09 05:22:00;;;;;;;5.87;3.90;;;9.40;99.90;;;;;;5054457;28;20425;-62
2022/05/09 05:24:27;;;;;;;6.83;3.50;;;9.50;99.90;;;;;;5053095;28;20813;-65
2022/05/09 05:26:54;;;;;;;4.70;3.90;;;9.60;99.90;;;;;;5054301;28;20486;-66
2022/05/09 05:29:23;;;;;;;7.10;4.67;;;9.70;99.90;;;;;;5053576;28;20401;-61
2022/05/09 05:31:50;;;;;;;10.37;6.20;;;9.70;99.90;;;;;;5052501;28;20512;-65
2022/05/09 05:34:16;;;;;;;5.60;4.23;;;9.80;99.90;;;;;;5054308;28;20402;-61
2022/05/09 05:36:42;;;;;;;7.13;5.90;;;9.90;99.90;;;;;;5054187;28;20414;-65
2022/05/09 05:39:09;;;;;;;5.13;3.37;;;9.90;99.90;;;;;;5053398;28;20706;-64
2022/05/09 05:41:36;;;;;;;5.40;3.80;;;10.00;99.90;;;;;;5053975;28;20423;-61
2022/05/09 05:44:02;;;;;;;6.43;3.00;;;10.20;99.90;;;;;;5054212;28;20416;-61
2022/05/09 05:46:28;;;;;;;4.20;3.10;;;10.20;99.90;;;;;;5053988;28;20904;-61
2022/05/09 05:48:53;;;;;;;4.20;2.93;;;10.20;99.90;;;;;;5052865;28;20411;-61
2022/05/09 05:51:19;;;;;;;4.40;3.20;;;10.30;99.90;;;;;;5053731;28;20166;-64
2022/05/09 05:53:45;;;;;;;3.23;2.93;;;10.30;99.90;;;;;;5054142;28;20540;-61
2022/05/09 05:56:12;;;;;;;5.27;2.90;;;10.50;99.90;;;;;;5054019;28;20180;-61
2022/05/09 05:58:38;;;;;;;9.73;3.30;;;10.50;99.90;;;;;;5053178;28;20405;-61
2022/05/09 06:01:04;;;;;;;18.03;3.70;;;10.50;99.90;;;;;;5053879;28;20397;-64
2022/05/09 06:03:30;;;;;;;5.10;3.27;;;10.60;99.90;;;;;;5053536;28;20469;-66
2022/05/09 06:05:56;;;;;;;3.97;2.63;;;10.70;99.90;;;;;;5053148;28;20589;-61
2022/05/09 06:08:21;;;;;;;3.40;2.90;;;10.70;99.90;;;;;;5053587;28;20217;-62
2022/05/09 06:10:47;;;;;;;3.20;2.83;;;10.80;99.90;;;;;;5053109;28;20257;-66
2022/05/09 06:13:13;;;;;;;4.37;2.67;;;10.90;99.90;;;;;;5053431;28;20197;-61
2022/05/09 06:15:39;;;;;;;3.50;3.07;;;10.90;99.90;;;;;;5053595;28;20167;-65
2022/05/09 06:18:08;;;;;;;9.07;2.60;;;11.00;99.90;;;;;;5053655;28;21004;-61
2022/05/09 06:20:36;;;;;;;3.23;2.67;;;11.10;99.90;;;;;;5051964;28;20190;-61
2022/05/09 06:23:03;;;;;;;3.07;2.40;;;11.20;99.90;;;;;;5053497;28;20502;-61
2022/05/09 06:25:30;;;;;;;9.27;2.90;;;11.20;99.90;;;;;;5051662;28;20404;-61
2022/05/09 06:27:58;;;;;;;4.90;2.57;;;11.30;99.90;;;;;;5053322;28;20480;-65
2022/05/09 06:30:24;;;;;;;4.10;2.40;;;11.40;99.90;;;;;;5052797;28;20806;-60
2022/05/09 06:32:50;;;;;;;3.87;2.23;;;11.40;99.90;;;;;;5053274;28;20432;-66
2022/05/09 06:35:20;;;;;;;2.50;2.30;;;11.50;99.90;;;;;;5053339;28;20806;-61
2022/05/09 06:37:47;;;;;;;15.23;3.00;;;11.50;99.90;;;;;;5053197;28;20470;-65
2022/05/09 06:40:13;;;;;;;5.53;2.73;;;11.50;99.90;;;;;;5052283;28;20729;-67
2022/05/09 06:42:39;;;;;;;5.73;3.03;;;11.60;99.90;;;;;;5053105;28;20458;-66
2022/05/09 06:45:06;;;;;;;4.77;2.97;;;11.70;99.90;;;;;;5053156;28;20850;-65
2022/05/09 06:47:31;;;;;;;8.97;2.97;;;11.80;99.90;;;;;;5053020;28;20214;-62
2022/05/09 06:50:05;;;;;;;8.77;3.00;;;11.90;99.90;;;;;;5052411;28;20797;-63
2022/05/09 06:52:31;;;;;;;2.43;2.23;;;12.00;99.90;;;;;;5053202;28;20648;-63
2022/05/09 06:54:56;;;;;;;5.10;2.47;;;12.10;99.90;;;;;;5053196;28;20409;-68
2022/05/09 06:57:22;;;;;;;6.70;2.60;;;12.20;99.90;;;;;;5053196;28;20372;-63
2022/05/09 06:59:48;;;;;;;3.00;2.63;;;12.30;99.90;;;;;;5052085;28;20175;-68
2022/05/09 07:02:14;;;;;;;3.80;2.50;;;12.40;99.90;;;;;;5052737;28;20190;-63
2022/05/09 07:04:41;;;;;;;6.40;2.60;;;12.40;99.90;;;;;;5053346;28;20400;-68
2022/05/09 07:07:07;;;;;;;4.47;2.47;;;12.50;99.90;;;;;;5053008;28;20448;-67
2022/05/09 07:09:32;;;;;;;6.77;2.80;;;12.60;99.90;;;;;;5052406;28;20398;-63
2022/05/09 07:11:58;;;;;;;9.07;2.57;;;12.60;99.90;;;;;;5052917;28;20236;-64
2022/05/09 07:14:24;;;;;;;3.60;2.30;;;12.70;98.50;;;;;;5053081;28;20238;-63
2022/05/09 07:16:49;;;;;;;2.90;2.50;;;12.80;98.00;;;;;;5052995;28;20178;-68
2022/05/09 07:19:16;;;;;;;4.00;2.47;;;12.80;96.70;;;;;;5051913;28;20258;-68
2022/05/09 07:21:42;;;;;;;4.40;2.33;;;12.90;94.20;;;;;;5052944;28;20174;-68
2022/05/09 07:24:08;;;;;;;2.30;2.00;;;13.00;93.40;;;;;;5052820;28;20415;-64
2022/05/09 07:26:36;;;;;;;3.33;2.50;;;13.10;93.20;;;;;;5052967;28;20460;-63
2022/05/09 07:29:02;;;;;;;8.87;2.40;;;13.20;93.20;;;;;;5052297;28;20829;-68
2022/05/09 07:31:29;;;;;;;6.33;2.13;;;13.20;93.20;;;;;;5053458;28;20405;-68
2022/05/09 07:33:54;;;;;;;3.63;2.27;;;13.30;93.20;;;;;;5056522;28;20805;-64
2022/05/09 07:36:21;;;;;;;4.90;2.40;;;13.40;93.30;;;;;;5056180;28;20433;-69
2022/05/09 07:38:46;;;;;;;5.93;3.13;;;13.50;93.40;;;;;;5055637;28;20171;-63
2022/05/09 07:41:12;;;;;;;2.93;2.43;;;13.60;93.40;;;;;;5056445;28;20766;-64
2022/05/09 07:43:38;;;;;;;4.93;2.50;;;13.60;93.30;;;;;;5056287;28;20683;-64
2022/05/09 07:46:03;;;;;;;7.27;2.23;;;13.70;93.40;;;;;;5056203;28;20199;-67
2022/05/09 07:48:30;;;;;;;3.10;2.20;;;13.60;93.40;;;;;;5055649;28;20532;-65
2022/05/09 07:50:58;;;;;;;3.23;2.17;;;13.70;93.40;;;;;;5056148;28;20167;-64
2022/05/09 07:53:27;;;;;;;4.80;2.63;;;13.80;93.50;;;;;;5056062;28;20458;-63
2022/05/09 07:55:52;;;;;;;2.93;2.47;;;13.80;93.40;;;;;;5055799;28;20372;-63
2022/05/09 07:58:19;;;;;;;2.63;2.43;;;13.80;93.40;;;;;;5054681;28;20748;-64
2022/05/09 08:00:45;;;;;;;4.60;2.27;;;13.90;93.50;;;;;;5055376;28;20167;-69
2022/05/09 08:03:22;;;;;;;8.97;2.80;;;13.90;93.50;;;;;;5055874;28;20848;-69
2022/05/09 08:05:53;;;;;;;2.57;2.37;;;14.10;93.50;;;;;;5055900;28;20375;-63
2022/05/09 08:08:19;;;;;;;4.07;2.30;;;14.20;93.60;;;;;;5055973;28;20381;-69
2022/05/09 08:10:45;;;;;;;4.30;2.97;;;14.30;93.60;;;;;;5054040;28;20405;-68
2022/05/09 08:13:14;;;;;;;2.07;1.87;;;14.40;93.60;;;;;;5055440;28;20726;-64
2022/05/09 08:15:40;;;;;;;2.87;2.67;;;14.40;93.70;;;;;;5055699;28;20909;-63
2022/05/09 08:18:06;;;;;;;4.30;2.20;;;14.60;93.70;;;;;;5055873;28;20365;-64
2022/05/09 08:20:34;;;;;;;3.37;2.10;;;14.80;93.80;;;;;;5055043;28;20408;-64
2022/05/09 08:23:08;;;;;;;4.50;2.23;;;14.90;93.80;;;;;;5055598;28;20424;-63
2022/05/09 08:25:36;;;;;;;6.20;3.07;;;15.00;93.30;;;;;;5055619;28;20393;-69
2022/05/09 08:28:02;;;;;;;2.80;2.00;;;15.10;89.70;;;;;;5055480;28;20511;-69
2022/05/09 08:30:35;;;;;;;6.43;2.03;;;15.20;82.80;;;;;;5054415;28;20402;-68
2022/05/09 08:33:03;;;;;;;2.07;1.90;;;15.40;84.40;;;;;;5055391;28;20436;-63
2022/05/09 08:35:29;;;;;;;2.00;1.90;;;15.50;82.00;;;;;;5055429;28;20385;-70
2022/05/09 08:37:54;;;;;;;1.77;1.67;;;15.60;76.30;;;;;;5054065;28;20426;-63
2022/05/09 08:40:32;;;;;;;6.70;2.10;;;15.70;80.20;;;;;;5054689;28;20171;-64
2022/05/09 08:43:33;;;;;;;5.87;2.23;;;15.90;72.00;;;;;;5054400;28;20191;-64
2022/05/09 08:46:13;;;;;;;2.43;2.23;;;16.00;67.40;;;;;;5046582;28;20425;-69
2022/05/09 08:49:05;;;;;;;4.93;2.10;;;16.20;66.40;;;;;;5054206;28;20401;-65
2022/05/09 08:51:59;;;;;;;3.90;2.10;;;16.40;62.20;;;;;;5055058;28;20405;-69
2022/05/09 08:54:25;;;;;;;2.47;2.27;;;16.50;56.80;;;;;;5053745;28;20406;-68
2022/05/09 08:56:58;;;;;;;3.40;1.83;;;16.60;54.40;;;;;;5054828;28;20467;-64
2022/05/09 08:59:31;;;;;;;4.20;2.20;;;16.70;44.60;;;;;;5054435;28;20400;-69
2022/05/09 09:02:24;;;;;;;5.83;2.00;;;16.90;49.60;;;;;;5053682;28;20429;-69
2022/05/09 09:04:55;;;;;;;3.30;2.23;;;17.10;48.50;;;;;;5044787;28;20469;-65
2022/05/09 09:07:49;;;;;;;2.00;1.90;;;17.40;44.40;;;;;;5054400;28;20449;-70
2022/05/09 09:10:36;;;;;;;2.13;1.33;;;17.60;39.10;;;;;;5052915;28;20402;-70
2022/05/09 09:13:19;;;;;;;3.00;1.50;;;17.90;40.70;;;;;;5054659;28;20429;-70
2022/05/09 09:16:26;;;;;;;2.43;1.73;;;18.00;28.50;;;;;;5054798;28;20394;-70
2022/05/09 09:18:56;;;;;;;2.53;1.70;;;18.10;28.30;;;;;;5053888;28;20397;-65
2022/05/09 09:21:25;;;;;;;4.20;1.90;;;18.20;20.90;;;;;;5054675;28;20400;-71
2022/05/09 09:24:21;;;;;;;3.40;3.10;;;18.30;18.00;;;;;;5053838;28;20440;-64
2022/05/09 09:26:53;;;;;;;6.30;1.57;;;18.50;14.90;;;;;;5054415;28;20531;-65
2022/05/09 09:29:25;;;;;;;1.60;1.50;;;18.50;12.20;;;;;;5053720;28;20402;-64
2022/05/09 09:32:22;;;;;;;9.30;1.70;;;18.60;10.30;;;;;;5054322;28;20389;-70
2022/05/09 09:35:03;;;;;;;1.47;1.37;;;18.60;5.20;;;;;;5054346;28;20492;-71
2022/05/09 09:38:05;;;;;;;2.13;1.70;;;18.70;4.00;;;;;;5054165;28;20401;-72
2022/05/09 09:40:31;;;;;;;2.10;1.33;;;19.10;6.70;;;;;;5053488;28;20531;-71
2022/05/09 09:42:57;;;;;;;1.60;1.30;;;19.50;1.00;;;;;;5053659;28;20413;-64
2022/05/09 09:45:35;;;;;;;3.83;1.50;;;19.80;1.00;;;;;;5054076;28;20424;-71
2022/05/09 09:48:22;;;;;;;2.33;1.13;;;20.20;1.00;;;;;;5053832;28;20452;-72
2022/05/09 09:50:53;;;;;;;1.80;1.70;;;20.60;1.00;;;;;;5053321;28;20895;-72
2022/05/09 09:53:41;;;;;;;3.10;1.70;;;20.90;1.00;;;;;;5053682;28;20425;-64
2022/05/09 09:56:27;;;;;;;3.17;1.53;;;21.40;1.00;;;;;;5053700;28;20917;-64
2022/05/09 09:59:16;;;;;;;9.17;1.67;;;21.90;1.00;;;;;;5053281;28;20476;-64
2022/05/09 10:01:43;;;;;;;1.40;1.30;;;21.80;1.00;;;;;;5053388;28;20401;-64
2022/05/09 10:04:24;;;;;;;1.70;1.13;;;22.00;1.00;;;;;;5053796;28;20429;-64
2022/05/09 10:07:21;;;;;;;1.50;1.27;;;22.30;1.00;;;;;;5052753;28;20440;-72
2022/05/09 10:10:10;;;;;;;3.10;1.60;;;22.60;1.00;;;;;;5049964;28;20426;-64
2022/05/09 10:12:36;;;;;;;4.87;1.90;;;22.80;1.00;;;;;;5053630;28;20468;-64
2022/05/09 10:15:18;;;;;;;2.90;1.43;;;22.80;1.00;;;;;;5053734;28;20393;-64
2022/05/09 10:17:44;;;;;;;2.83;1.80;;;22.90;1.00;;;;;;5053607;28;20462;-65
2022/05/09 10:20:39;;;;;;;2.07;1.53;;;22.70;1.00;;;;;;5052725;28;20481;-68
2022/05/09 10:26:24;;;;;;;2.33;1.73;;;23.00;1.00;;;;;;5053732;28;20440;-63
2022/05/09 10:28:54;;;;;;;3.30;3.00;;;23.50;1.00;;;;;;5052819;28;20492;-63
2022/05/09 10:31:43;;;;;;;2.67;1.80;;;23.60;1.00;;;;;;5053413;28;20406;-63
2022/05/09 10:34:26;;;;;;;2.03;1.43;;;23.50;1.00;;;;;;5053305;28;20432;-65
2022/05/09 10:37:03;;;;;;;12.13;2.20;;;23.50;1.00;;;;;;5053559;28;20437;-72
2022/05/09 10:39:42;;;;;;;1.70;1.50;;;23.60;1.00;;;;;;5052183;28;20416;-65
2022/05/09 10:42:11;;;;;;;4.23;2.00;;;23.80;1.00;;;;;;5053338;28;20533;-73
2022/05/09 10:45:16;;;;;;;4.10;1.87;;;24.00;1.00;;;;;;5052283;28;20421;-70
2022/05/09 10:47:58;;;;;;;4.60;2.30;;;24.30;1.00;;;;;;5048217;28;20471;-66
2022/05/09 10:50:43;;;;;;;4.53;2.00;;;24.20;1.00;;;;;;5052509;28;20505;-65
2022/05/09 10:53:33;;;;;;;3.17;1.87;;;24.20;1.00;;;;;;5053120;28;20440;-65
2022/05/09 10:56:19;;;;;;;3.67;2.00;;;24.40;1.00;;;;;;5053117;28;20397;-65
2022/05/09 10:59:10;;;;;;;4.70;2.00;;;24.60;1.00;;;;;;5051616;28;20429;-63
2022/05/09 11:01:44;;;;;;;3.80;1.93;;;24.80;1.00;;;;;;5052894;28;20405;-68
2022/05/09 11:04:12;;;;;;;3.73;1.67;;;25.20;1.00;;;;;;5053096;28;20425;-63
2022/05/09 11:06:49;;;;;;;3.20;2.00;;;25.30;1.00;;;;;;5053994;28;20476;-71
2022/05/09 11:09:24;;;;;;;1.60;1.47;;;25.60;1.00;;;;;;5056556;28;20754;-70
2022/05/09 11:12:02;;;;;;;3.03;1.80;;;25.80;1.00;;;;;;5057017;28;20450;-70
2022/05/09 11:15:04;;;;;;;1.90;1.50;;;25.90;1.00;;;;;;5057080;28;20385;-72
2022/05/09 11:17:51;;;;;;;1.97;1.73;;;26.10;1.00;;;;;;5056652;28;20446;-63
2022/05/09 11:20:29;;;;;;;4.97;2.20;;;25.80;1.00;;;;;;5056085;28;20409;-71
2022/05/09 11:23:38;;;;;;;7.53;2.07;;;25.80;1.00;;;;;;5055386;28;20794;-72
2022/05/09 11:26:09;;;;;;;5.70;2.03;;;26.00;1.00;;;;;;5056638;28;20408;-71
2022/05/09 11:29:20;;;;;;;3.43;1.93;;;26.00;1.00;;;;;;5056092;28;20403;-64
2022/05/09 11:32:14;;;;;;;5.47;2.47;;;25.90;1.00;;;;;;5056612;28;20397;-67
2022/05/09 11:35:04;;;;;;;4.83;2.27;;;26.20;1.00;;;;;;5056650;28;20398;-72
2022/05/09 11:37:38;;;;;;;3.10;2.13;;;26.60;1.00;;;;;;5056289;28;20409;-64
2022/05/09 11:40:31;;;;;;;3.67;1.90;;;26.70;1.00;;;;;;5055771;28;20488;-71
2022/05/09 11:43:30;;;;;;;10.07;2.60;;;26.90;1.00;;;;;;5056353;28;20421;-63
2022/05/09 11:46:01;;;;;;;6.37;1.90;;;27.00;1.00;;;;;;5056289;28;20397;-71
2022/05/09 11:48:42;;;;;;;5.13;2.63;;;26.90;1.00;;;;;;5056163;28;20405;-71
2022/05/09 11:51:19;;;;;;;5.20;3.77;;;27.20;1.00;;;;;;5056336;28;20400;-72
2022/05/09 11:53:52;;;;;;;4.70;2.10;;;27.90;1.00;;;;;;5055684;28;20888;-71
2022/05/09 11:56:18;;;;;;;2.50;1.97;;;27.70;1.00;;;;;;5056056;28;20504;-71
2022/05/09 11:58:45;;;;;;;3.83;2.63;;;28.00;1.00;;;;;;5055636;28;20505;-64
2022/05/09 12:01:12;;;;;;;4.80;2.77;;;28.20;1.00;;;;;;5056061;28;20409;-63
2022/05/09 12:03:40;;;;;;;2.20;1.67;;;27.80;1.00;;;;;;5055891;28;20445;-71
2022/05/09 12:06:12;;;;;;;5.43;2.00;;;27.60;1.00;;;;;;5055870;28;20763;-69
2022/05/09 12:08:48;;;;;;;8.80;2.37;;;27.60;1.00;;;;;;5055168;28;20410;-66
2022/05/09 12:11:23;;;;;;;13.23;2.10;;;27.90;1.00;;;;;;5056162;28;20405;-69
2022/05/09 12:13:53;;;;;;;5.83;2.40;;;27.70;1.00;;;;;;5055348;28;20926;-63
2022/05/09 12:16:37;;;;;;;3.60;2.07;;;27.70;1.00;;;;;;5055826;28;20421;-66
2022/05/09 12:19:26;;;;;;;7.43;2.50;;;27.80;1.00;;;;;;5053746;28;20408;-67
2022/05/09 12:22:33;;;;;;;4.83;2.23;;;28.00;1.00;;;;;;5055597;28;20837;-63
2022/05/09 12:24:59;;;;;;;3.10;2.03;;;28.20;1.00;;;;;;5055677;28;20424;-64
2022/05/09 12:28:03;;;;;;;4.33;2.27;;;28.40;1.00;;;;;;5055726;28;20454;-68
2022/05/09 12:30:40;;;;;;;4.90;2.17;;;28.30;1.00;;;;;;5054853;28;20167;-70
2022/05/09 12:33:22;;;;;;;5.03;1.97;;;28.60;1.00;;;;;;5054970;28;20432;-69
2022/05/09 12:35:52;;;;;;;6.70;2.27;;;28.50;1.00;;;;;;5055502;28;20451;-63
2022/05/09 12:38:28;;;;;;;6.40;2.00;;;28.90;1.00;;;;;;5055439;28;20404;-63
2022/05/09 12:41:00;;;;;;;2.90;1.90;;;28.80;1.00;;;;;;5055317;28;20975;-67
2022/05/09 12:43:28;;;;;;;5.93;2.87;;;28.30;1.00;;;;;;5055242;28;20434;-68
2022/05/09 12:45:53;;;;;;;9.73;2.73;;;27.60;1.00;;;;;;5055159;28;20408;-62
2022/05/09 12:48:19;;;;;;;3.37;2.47;;;27.30;1.00;;;;;;5055210;28;20397;-66
2022/05/09 12:50:45;;;;;;;4.30;2.63;;;27.10;1.00;;;;;;5053981;28;20163;-63
2022/05/09 12:53:15;;;;;;;3.23;2.00;;;26.50;1.00;;;;;;5055157;28;20187;-61
2022/05/09 12:55:56;;;;;;;2.73;1.90;;;26.10;1.00;;;;;;5055245;28;20398;-61
2022/05/09 12:58:49;;;;;;;7.30;2.53;;;25.80;1.00;;;;;;5054868;28;20408;-63
2022/05/09 13:01:27;;;;;;;4.87;2.00;;;25.30;1.00;;;;;;5053715;28;20425;-67
2022/05/09 13:03:56;;;;;;;5.17;2.67;;;24.90;1.00;;;;;;5054729;28;20445;-62
2022/05/09 13:06:25;;;;;;;6.43;2.63;;;24.80;1.00;;;;;;5054320;28;20449;-61
2022/05/09 13:08:51;;;;;;;4.20;1.90;;;24.90;1.00;;;;;;5054012;28;20409;-62
2022/05/09 13:11:21;;;;;;;5.57;2.20;;;24.80;1.00;;;;;;5054946;28;20490;-61
2022/05/09 13:14:00;;;;;;;6.03;2.23;;;24.90;1.00;;;;;;5054751;28;20410;-67
2022/05/09 13:16:36;;;;;;;5.13;2.57;;;24.60;1.00;;;;;;5054742;28;20750;-67
2022/05/09 13:19:02;;;;;;;3.60;2.97;;;24.50;1.00;;;;;;5053975;28;20762;-66
2022/05/09 13:21:36;;;;;;;2.87;2.33;;;24.60;1.00;;;;;;5054702;28;20401;-62
2022/05/09 13:24:03;;;;;;;6.17;2.87;;;25.00;1.00;;;;;;5053240;28;20409;-61
2022/05/09 13:26:31;;;;;;;6.33;2.67;;;25.40;1.00;;;;;;5054116;28;20531;-67